createdAt,value
2022-11-12T00:00:06.037Z,13.60
2022-11-12T00:03:26.866Z,13.70
2022-11-12T00:06:47.622Z,13.60
2022-11-12T00:10:09.066Z,13.60
2022-11-12T00:13:29.825Z,13.60
2022-11-12T00:16:50.203Z,13.60
2022-11-12T00:20:11.021Z,13.60
2022-11-12T00:23:31.508Z,13.50
2022-11-12T00:26:51.767Z,13.60
2022-11-12T00:30:12.556Z,13.50
2022-11-12T00:33:33.030Z,13.60
2022-11-12T00:36:54.224Z,13.50
2022-11-12T00:40:15.448Z,13.50
2022-11-12T00:43:36.148Z,13.50
2022-11-12T00:46:57.241Z,13.50
2022-11-12T00:50:17.943Z,13.60
2022-11-12T00:53:38.422Z,13.60
2022-11-12T00:56:58.810Z,13.60
2022-11-12T01:00:20.861Z,13.50
2022-11-12T01:03:41.437Z,13.60
2022-11-12T01:07:02.358Z,13.60
2022-11-12T01:10:23.313Z,13.60
2022-11-12T01:13:45.428Z,13.60
2022-11-12T01:17:06.301Z,13.50
2022-11-12T01:20:26.577Z,13.40
2022-11-12T01:23:46.959Z,13.40
2022-11-12T01:27:07.525Z,13.40
2022-11-12T01:30:28.065Z,13.50
2022-11-12T01:33:50.488Z,13.40
2022-11-12T01:37:10.790Z,13.30
2022-11-12T01:40:32.883Z,13.30
2022-11-12T01:44:17.346Z,13.40
2022-11-12T01:47:38.093Z,13.40
2022-11-12T01:50:58.408Z,13.40
2022-11-12T01:54:19.230Z,13.40
2022-11-12T01:57:48.810Z,13.40
2022-11-12T02:01:09.133Z,13.30
2022-11-12T02:04:29.970Z,13.30
2022-11-12T02:07:50.583Z,13.30
2022-11-12T02:11:19.970Z,13.20
2022-11-12T02:14:40.384Z,13.20
2022-11-12T02:18:00.867Z,13.10
2022-11-12T02:21:23.334Z,13.20
2022-11-12T02:24:43.799Z,13.20
2022-11-12T02:28:07.156Z,13.20
2022-11-12T02:31:27.814Z,13.10
2022-11-12T02:34:48.380Z,13.00
2022-11-12T02:38:09.278Z,13.00
2022-11-12T02:41:29.877Z,13.00
2022-11-12T02:44:50.133Z,12.90
2022-11-12T02:48:13.955Z,12.90
2022-11-12T02:51:37.042Z,12.90
2022-11-12T02:54:57.490Z,12.90
2022-11-12T02:58:17.803Z,12.70
2022-11-12T03:01:38.212Z,12.60
2022-11-12T03:04:58.585Z,12.50
2022-11-12T03:08:18.926Z,12.40
2022-11-12T03:11:39.239Z,12.40
2022-11-12T03:15:00.067Z,12.40
2022-11-12T03:18:20.633Z,12.30
2022-11-12T03:21:41.226Z,12.30
2022-11-12T03:25:01.665Z,12.20
2022-11-12T03:28:21.988Z,12.10
2022-11-12T03:31:42.489Z,12.10
2022-11-12T03:35:03.045Z,12.00
2022-11-12T03:38:23.628Z,11.90
2022-11-12T03:41:44.667Z,11.90
2022-11-12T03:45:06.223Z,11.80
2022-11-12T03:48:26.908Z,11.70
2022-11-12T03:51:47.576Z,11.70
2022-11-12T03:55:08.545Z,11.80
2022-11-12T03:58:29.225Z,11.80
2022-11-12T04:01:49.864Z,11.80
2022-11-12T04:05:29.318Z,11.80
2022-11-12T04:08:50.144Z,11.80
2022-11-12T04:12:29.411Z,11.70
2022-11-12T04:16:10.126Z,11.60
2022-11-12T04:19:49.114Z,11.60
2022-11-12T04:23:10.014Z,11.60
2022-11-12T04:26:30.416Z,11.70
2022-11-12T04:30:09.515Z,11.70
2022-11-12T04:33:30.160Z,11.80
2022-11-12T04:36:51.181Z,11.90
2022-11-12T04:40:35.239Z,11.90
2022-11-12T04:44:14.640Z,11.80
2022-11-12T04:47:38.198Z,11.80
2022-11-12T04:51:28.503Z,11.60
2022-11-12T04:54:49.136Z,11.50
2022-11-12T04:58:09.434Z,11.60
2022-11-12T05:01:29.807Z,11.50
2022-11-12T05:04:50.297Z,11.40
2022-11-12T05:08:10.698Z,11.30
2022-11-12T05:11:31.104Z,11.30
2022-11-12T05:14:51.524Z,11.30
2022-11-12T05:18:11.824Z,11.20
2022-11-12T05:21:50.726Z,11.10
2022-11-12T05:25:11.494Z,11.00
2022-11-12T05:28:36.941Z,10.90
2022-11-12T05:31:57.529Z,10.80
2022-11-12T05:35:17.995Z,10.80
2022-11-12T05:38:39.223Z,10.80
2022-11-12T05:42:14.054Z,10.70
2022-11-12T05:45:34.809Z,10.80
2022-11-12T05:48:55.165Z,10.80
2022-11-12T05:52:15.725Z,10.80
2022-11-12T05:55:37.225Z,10.90
2022-11-12T05:58:58.273Z,10.80
2022-11-12T06:02:18.699Z,10.80
2022-11-12T06:05:39.128Z,10.80
2022-11-12T06:08:59.468Z,10.80
2022-11-12T06:12:19.950Z,11.00
2022-11-12T06:15:40.438Z,11.00
2022-11-12T06:19:01.106Z,11.00
2022-11-12T06:22:21.567Z,11.00
2022-11-12T06:25:41.937Z,11.00
2022-11-12T06:29:02.292Z,10.90
2022-11-12T06:32:22.629Z,10.90
2022-11-12T06:35:43.397Z,10.90
2022-11-12T06:39:04.030Z,11.00
2022-11-12T06:42:24.502Z,11.00
2022-11-12T06:45:44.841Z,11.00
2022-11-12T06:49:05.156Z,11.00
2022-11-12T06:52:25.621Z,10.90
2022-11-12T06:55:46.268Z,10.70
2022-11-12T06:59:06.638Z,10.60
2022-11-12T07:02:27.090Z,10.60
2022-11-12T07:05:47.541Z,10.50
2022-11-12T07:09:08.073Z,10.40
2022-11-12T07:12:29.461Z,10.30
2022-11-12T07:15:50.272Z,10.40
2022-11-12T07:19:11.636Z,10.30
2022-11-12T07:22:34.495Z,10.40
2022-11-12T07:26:01.881Z,10.20
2022-11-12T07:29:42.585Z,10.20
2022-11-12T07:33:03.212Z,10.20
2022-11-12T07:36:23.669Z,10.10
2022-11-12T07:39:44.198Z,10.10
2022-11-12T07:43:04.591Z,10.20
2022-11-12T07:46:26.873Z,10.10
2022-11-12T07:49:47.353Z,10.20
2022-11-12T07:53:07.626Z,10.30
2022-11-12T07:56:28.740Z,10.30
2022-11-12T07:59:49.254Z,10.20
2022-11-12T08:03:09.739Z,10.20
2022-11-12T08:06:30.749Z,10.20
2022-11-12T08:09:51.222Z,10.10
2022-11-12T08:13:12.140Z,10.10
2022-11-12T08:16:32.681Z,10.10
2022-11-12T08:19:55.328Z,10.10
2022-11-12T08:23:15.615Z,10.10
2022-11-12T08:26:36.108Z,10.10
2022-11-12T08:29:56.499Z,10.10
2022-11-12T08:33:16.870Z,10.20
2022-11-12T08:36:37.458Z,10.30
2022-11-12T08:39:58.226Z,10.40
2022-11-12T08:43:18.584Z,10.50
2022-11-12T08:46:39.107Z,10.70
2022-11-12T08:49:59.530Z,10.90
2022-11-12T08:53:21.508Z,10.90
2022-11-12T08:56:42.076Z,10.80
2022-11-12T09:00:02.764Z,10.70
2022-11-12T09:03:25.180Z,10.70
2022-11-12T09:06:49.863Z,10.80
2022-11-12T09:10:13.473Z,10.70
2022-11-12T09:13:34.399Z,10.60
2022-11-12T09:16:55.304Z,10.50
2022-11-12T09:20:15.838Z,10.60
2022-11-12T09:23:36.769Z,10.50
2022-11-12T09:26:57.095Z,10.50
2022-11-12T09:30:17.439Z,10.40
2022-11-12T09:33:37.836Z,10.50
2022-11-12T09:36:58.241Z,10.60
2022-11-12T09:40:19.473Z,10.80
2022-11-12T09:44:06.064Z,11.00
2022-11-12T09:47:38.681Z,10.90
2022-11-12T09:51:26.093Z,10.80
2022-11-12T09:54:47.046Z,10.70
2022-11-12T09:58:14.543Z,10.90
2022-11-12T10:01:55.319Z,11.10
2022-11-12T10:05:29.123Z,10.90
2022-11-12T10:09:05.451Z,10.90
2022-11-12T10:12:48.893Z,11.10
2022-11-12T10:16:43.569Z,11.00
2022-11-12T10:20:25.805Z,11.20
2022-11-12T10:23:50.735Z,11.20
2022-11-12T10:27:23.077Z,11.00
2022-11-12T10:30:43.353Z,10.80
2022-11-12T10:34:23.785Z,10.80
2022-11-12T10:38:02.763Z,10.80
2022-11-12T10:41:32.009Z,10.90
2022-11-12T10:44:52.708Z,10.90
2022-11-12T10:48:33.501Z,10.80
2022-11-12T10:51:59.153Z,11.00
2022-11-12T10:55:22.683Z,11.20
2022-11-12T10:58:43.049Z,11.40
2022-11-12T11:02:03.597Z,11.50
2022-11-12T11:05:38.241Z,11.50
2022-11-12T11:09:13.842Z,11.40
2022-11-12T11:12:34.728Z,11.50
2022-11-12T11:16:07.006Z,11.70
2022-11-12T11:19:41.591Z,11.60
2022-11-12T11:23:26.784Z,11.50
2022-11-12T11:27:23.281Z,11.40
2022-11-12T11:31:21.462Z,11.60
2022-11-12T11:34:51.717Z,11.30
2022-11-12T11:38:39.639Z,11.20
2022-11-12T11:42:18.286Z,11.20
2022-11-12T11:46:12.092Z,11.40
2022-11-12T11:50:08.549Z,11.50
2022-11-12T11:53:44.156Z,11.50
2022-11-12T11:57:16.001Z,11.30
2022-11-12T12:00:46.070Z,11.10
2022-11-12T12:04:47.794Z,11.10
2022-11-12T12:09:01.463Z,11.20
2022-11-12T12:12:52.878Z,11.20
2022-11-12T12:16:38.209Z,11.20
2022-11-12T12:20:30.303Z,11.20
2022-11-12T12:24:18.888Z,11.10
2022-11-12T12:27:54.865Z,11.20
2022-11-12T12:31:18.851Z,11.70
2022-11-12T12:34:43.670Z,12.00
2022-11-12T12:38:35.825Z,12.00
2022-11-12T12:42:10.056Z,12.70
2022-11-12T12:45:38.599Z,13.00
2022-11-12T12:48:59.009Z,12.70
2022-11-12T12:52:19.404Z,12.70
2022-11-12T12:55:53.840Z,12.80
2022-11-12T12:59:22.871Z,15.30
2022-11-12T13:02:43.080Z,17.90
2022-11-12T13:06:27.573Z,18.00
2022-11-12T13:09:48.084Z,18.50
2022-11-12T13:13:17.684Z,15.00
2022-11-12T13:16:51.094Z,13.80
2022-11-12T13:20:32.971Z,13.30
2022-11-12T13:24:07.871Z,12.90
2022-11-12T13:27:43.468Z,12.70
2022-11-12T13:31:04.353Z,12.50
2022-11-12T13:34:31.474Z,12.60
2022-11-12T13:38:11.962Z,12.50
2022-11-12T13:41:58.620Z,12.50
2022-11-12T13:45:26.185Z,12.60
2022-11-12T13:49:03.521Z,12.60
2022-11-12T13:52:23.935Z,12.50
2022-11-12T13:55:52.496Z,12.60
2022-11-12T13:59:18.654Z,12.80
2022-11-12T14:02:41.665Z,16.10
2022-11-12T14:06:14.249Z,17.90
2022-11-12T14:09:34.701Z,17.80
2022-11-12T14:13:07.119Z,15.00
2022-11-12T14:16:33.358Z,14.00
2022-11-12T14:20:30.614Z,14.60
2022-11-12T14:23:51.234Z,14.50
2022-11-12T14:27:31.281Z,16.50
2022-11-12T14:30:51.987Z,17.40
2022-11-12T14:34:32.970Z,17.10
2022-11-12T14:38:19.205Z,16.80
2022-11-12T14:41:41.492Z,17.10
2022-11-12T14:45:02.488Z,16.80
2022-11-12T14:48:22.970Z,17.20
2022-11-12T14:52:17.146Z,17.00
2022-11-12T14:55:38.049Z,16.90
2022-11-12T14:58:58.469Z,16.60
2022-11-12T15:02:50.338Z,17.20
2022-11-12T15:06:13.226Z,17.30
2022-11-12T15:09:38.497Z,17.20
2022-11-12T15:13:19.326Z,16.90
2022-11-12T15:16:39.841Z,16.60
2022-11-12T15:20:14.009Z,16.20
2022-11-12T15:23:34.216Z,16.30
2022-11-12T15:26:55.136Z,16.20
2022-11-12T15:30:25.821Z,16.10
2022-11-12T15:33:46.504Z,15.90
2022-11-12T15:37:33.517Z,15.70
2022-11-12T15:40:57.572Z,15.60
2022-11-12T15:44:18.208Z,15.30
2022-11-12T15:47:38.548Z,14.90
2022-11-12T15:50:58.856Z,14.20
2022-11-12T15:54:19.198Z,13.50
2022-11-12T15:57:48.772Z,12.90
2022-11-12T16:01:11.125Z,12.20
2022-11-12T16:04:31.877Z,11.60
2022-11-12T16:07:52.353Z,11.30
2022-11-12T16:11:32.938Z,11.10
2022-11-12T16:14:53.316Z,11.00
2022-11-12T16:18:13.746Z,10.80
2022-11-12T16:21:34.210Z,10.60
2022-11-12T16:24:54.543Z,10.60
2022-11-12T16:28:18.853Z,10.40
2022-11-12T16:31:43.017Z,10.40
2022-11-12T16:35:03.484Z,10.30
2022-11-12T16:38:25.835Z,10.30
2022-11-12T16:41:46.450Z,10.30
2022-11-12T16:45:07.313Z,10.20
2022-11-12T16:48:27.777Z,10.10
2022-11-12T16:51:49.018Z,10.10
2022-11-12T16:55:10.217Z,10.00
2022-11-12T16:58:30.828Z,9.90
2022-11-12T17:01:51.199Z,9.90
2022-11-12T17:05:18.034Z,9.80
2022-11-12T17:08:38.622Z,9.70
2022-11-12T17:11:59.406Z,9.80
2022-11-12T17:15:20.068Z,9.90
2022-11-12T17:18:40.567Z,9.90
2022-11-12T17:22:00.981Z,9.80
2022-11-12T17:25:21.491Z,9.80
2022-11-12T17:28:41.883Z,9.80
2022-11-12T17:32:02.690Z,9.80
2022-11-12T17:35:23.242Z,9.80
2022-11-12T17:38:44.511Z,9.80
2022-11-12T17:42:05.299Z,9.80
2022-11-12T17:45:25.762Z,9.70
2022-11-12T17:48:46.154Z,9.70
2022-11-12T17:52:06.602Z,9.80
2022-11-12T17:55:26.951Z,9.80
2022-11-12T17:58:48.947Z,9.80
2022-11-12T18:02:12.205Z,9.70
2022-11-12T18:05:32.493Z,9.70
2022-11-12T18:08:57.316Z,9.70
2022-11-12T18:12:18.063Z,9.70
2022-11-12T18:15:38.742Z,9.70
2022-11-12T18:18:59.363Z,9.70
2022-11-12T18:22:20.702Z,9.70
2022-11-12T18:25:41.080Z,9.70
2022-11-12T18:29:01.545Z,9.80
2022-11-12T18:32:21.853Z,9.80
2022-11-12T18:35:42.382Z,9.80
2022-11-12T18:39:04.280Z,9.80
2022-11-12T18:42:25.048Z,9.80
2022-11-12T18:45:45.274Z,9.80
2022-11-12T18:49:05.795Z,9.80
2022-11-12T18:52:26.642Z,9.80
2022-11-12T18:55:47.069Z,9.80
2022-11-12T18:59:07.651Z,9.90
2022-11-12T19:02:28.140Z,9.90
2022-11-12T19:05:48.547Z,9.90
2022-11-12T19:09:11.802Z,9.90
2022-11-12T19:12:32.368Z,9.90
2022-11-12T19:15:52.888Z,10.00
2022-11-12T19:19:15.180Z,10.00
2022-11-12T19:22:36.004Z,10.00
2022-11-12T19:25:56.763Z,10.00
2022-11-12T19:29:17.402Z,9.90
2022-11-12T19:32:37.735Z,9.80
2022-11-12T19:36:01.003Z,9.70
2022-11-12T19:39:25.957Z,9.70
2022-11-12T19:42:48.065Z,9.60
2022-11-12T19:46:09.634Z,9.60
2022-11-12T19:49:30.282Z,9.60
2022-11-12T19:52:54.405Z,9.50
2022-11-12T19:56:17.202Z,9.50
2022-11-12T19:59:40.087Z,9.50
2022-11-12T20:03:00.962Z,9.50
2022-11-12T20:06:25.569Z,9.40
2022-11-12T20:09:46.257Z,9.50
2022-11-12T20:13:07.311Z,9.80
2022-11-12T20:16:28.049Z,9.70
2022-11-12T20:19:48.432Z,9.70
2022-11-12T20:23:08.865Z,9.80
2022-11-12T20:26:29.437Z,9.80
2022-11-12T20:29:50.072Z,9.70
2022-11-12T20:33:12.881Z,9.70
2022-11-12T20:36:33.633Z,9.70
2022-11-12T20:39:54.221Z,9.70
2022-11-12T20:43:15.476Z,9.60
2022-11-12T20:46:35.901Z,9.70
2022-11-12T20:49:56.362Z,10.00
2022-11-12T20:53:16.698Z,10.00
2022-11-12T20:56:37.405Z,10.00
2022-11-12T20:59:58.254Z,10.20
2022-11-12T21:03:18.503Z,10.10
2022-11-12T21:06:39.047Z,10.10
2022-11-12T21:09:59.894Z,10.10
2022-11-12T21:13:21.745Z,10.00
2022-11-12T21:16:42.278Z,10.00
2022-11-12T21:20:02.679Z,9.90
2022-11-12T21:23:23.894Z,9.80
2022-11-12T21:26:44.630Z,9.80
2022-11-12T21:30:05.862Z,9.80
2022-11-12T21:33:26.387Z,9.70
2022-11-12T21:36:47.331Z,9.80
2022-11-12T21:40:08.838Z,9.70
2022-11-12T21:43:29.672Z,9.70
2022-11-12T21:46:50.123Z,9.60
2022-11-12T21:50:10.767Z,9.70
2022-11-12T21:53:31.161Z,9.80
2022-11-12T21:56:51.550Z,9.80
2022-11-12T22:00:40.462Z,9.70
2022-11-12T22:03:54.625Z,9.80
2022-11-12T22:07:15.013Z,9.80
2022-11-12T22:10:35.955Z,9.80
2022-11-12T22:13:56.604Z,9.70
2022-11-12T22:17:17.109Z,9.70
2022-11-12T22:20:37.506Z,9.60
2022-11-12T22:23:58.128Z,9.60
2022-11-12T22:27:18.847Z,9.50
2022-11-12T22:30:39.206Z,9.50
2022-11-12T22:34:00.754Z,9.50
2022-11-12T22:37:21.620Z,9.40
2022-11-12T22:40:46.961Z,9.40
2022-11-12T22:44:07.517Z,9.40
2022-11-12T22:47:28.019Z,9.40
2022-11-12T22:50:48.555Z,9.40
2022-11-12T22:54:10.242Z,9.40
2022-11-12T22:57:30.867Z,9.50
2022-11-12T23:00:51.220Z,9.50
2022-11-12T23:04:11.781Z,9.50
2022-11-12T23:07:32.143Z,9.50
2022-11-12T23:10:52.624Z,9.50
2022-11-12T23:14:13.049Z,9.60
2022-11-12T23:17:33.391Z,9.60
2022-11-12T23:20:53.807Z,9.60
2022-11-12T23:24:14.358Z,9.60
2022-11-12T23:27:34.711Z,9.60
2022-11-12T23:30:55.101Z,9.70
2022-11-12T23:34:15.914Z,9.70
2022-11-12T23:37:36.417Z,9.80
2022-11-12T23:40:57.056Z,9.90
2022-11-12T23:44:17.903Z,10.00
2022-11-12T23:47:38.489Z,10.00
2022-11-12T23:51:07.880Z,10.00
2022-11-12T23:54:28.236Z,10.00
2022-11-12T23:57:48.766Z,10.00
